Terminal Aerodrome Forecast
Issued by NWS New Orleans/Baton Rouge, LA

Home | Current Version | Previous Version | Text Only | Print | Product List | Glossary On
Versions: 1 2 3 4 5 6 7 8 9 10 11 12 13 14 15 16 17 18 19 20 21
137
FTUS44 KLIX 172342
TAFBTR
TAF
KBTR 172342Z 1800/1824 18008KT P6SM SCT030 SCT070 OVC200
     FM180600 14005KT 2SM BR BKN008
     FM181000 14004KT 1SM BR OVC004
     FM181300 14004KT 1/2SM FG OVC002
     FM181700 15005KT P6SM OVC008
     FM182200 15006KT P6SM VCSH OVC035=

USA.gov is the U.S. government's official web portal to all federal, state and local government web resources and services.